createdAt,value
2023-02-11T00:01:08.999Z,0.82
2023-02-11T00:03:35.926Z,4.38
2023-02-11T00:06:05.658Z,0.10
2023-02-11T00:08:32.451Z,0.10
2023-02-11T00:10:59.090Z,0.63
2023-02-11T00:13:26.308Z,0.08
2023-02-11T00:15:53.705Z,1.38
2023-02-11T00:18:20.508Z,2.35
2023-02-11T00:20:47.197Z,1.13
2023-02-11T00:23:14.429Z,1.27
2023-02-11T00:25:42.248Z,0.10
2023-02-11T00:28:09.834Z,0.10
2023-02-11T00:30:37.166Z,0.68
2023-02-11T00:33:04.265Z,0.82
2023-02-11T00:35:32.415Z,0.57
2023-02-11T00:38:00.479Z,2.45
2023-02-11T00:40:27.562Z,1.45
2023-02-11T00:42:54.359Z,0.40
2023-02-11T00:45:21.475Z,1.10
2023-02-11T00:47:48.414Z,0.00
2023-02-11T00:50:15.094Z,1.15
2023-02-11T00:52:41.874Z,2.20
2023-02-11T00:55:09.233Z,1.70
2023-02-11T00:57:36.115Z,0.00
2023-02-11T01:00:04.075Z,0.50
2023-02-11T01:02:30.911Z,0.00
2023-02-11T01:04:59.753Z,0.95
2023-02-11T01:07:27.779Z,0.45
2023-02-11T01:09:55.057Z,1.27
2023-02-11T01:12:22.072Z,0.00
2023-02-11T01:14:48.864Z,0.43
2023-02-11T01:17:18.144Z,2.50
2023-02-11T01:19:44.859Z,0.20
2023-02-11T01:22:11.623Z,0.13
2023-02-11T01:24:38.281Z,0.25
2023-02-11T01:27:07.994Z,0.63
2023-02-11T01:29:34.952Z,0.75
2023-02-11T01:32:01.773Z,1.17
2023-02-11T01:34:28.618Z,0.10
2023-02-11T01:36:59.147Z,0.45
2023-02-11T01:39:28.628Z,5.78
2023-02-11T01:41:55.335Z,1.60
2023-02-11T01:44:29.036Z,0.40
2023-02-11T01:46:55.956Z,0.60
2023-02-11T01:49:31.081Z,0.40
2023-02-11T01:52:12.328Z,3.95
2023-02-11T01:55:09.149Z,3.38
2023-02-11T01:57:37.594Z,0.95
2023-02-11T02:00:14.858Z,0.30
2023-02-11T02:03:14.678Z,0.30
2023-02-11T02:05:47.795Z,0.80
2023-02-11T02:08:19.236Z,1.50
2023-02-11T02:10:48.660Z,3.65
2023-02-11T02:13:17.470Z,1.88
2023-02-11T02:15:53.375Z,0.52
2023-02-11T02:18:36.361Z,0.52
2023-02-11T02:21:18.293Z,1.83
2023-02-11T02:24:03.854Z,0.80
2023-02-11T02:26:39.645Z,0.20
2023-02-11T02:29:46.320Z,0.00
2023-02-11T02:32:33.305Z,7.00
2023-02-11T02:35:00.426Z,0.95
2023-02-11T02:37:53.654Z,2.10
2023-02-11T02:40:24.324Z,0.55
2023-02-11T02:42:51.629Z,0.10
2023-02-11T02:45:18.656Z,1.63
2023-02-11T02:47:45.417Z,4.95
2023-02-11T02:50:14.872Z,1.00
2023-02-11T02:52:53.828Z,1.02
2023-02-11T02:55:44.983Z,0.52
2023-02-11T02:58:19.707Z,0.82
2023-02-11T03:01:08.787Z,0.68
2023-02-11T03:04:03.064Z,0.50
2023-02-11T03:06:58.451Z,3.55
2023-02-11T03:09:37.423Z,1.00
2023-02-11T03:12:10.912Z,0.20
2023-02-11T03:14:39.287Z,1.85
2023-02-11T03:17:07.316Z,0.52
2023-02-11T03:19:41.705Z,2.15
2023-02-11T03:22:12.407Z,2.17
2023-02-11T03:24:40.394Z,0.45
2023-02-11T03:27:13.404Z,3.40
2023-02-11T03:30:12.179Z,1.67
2023-02-11T03:32:42.154Z,2.67
2023-02-11T03:35:15.883Z,0.08
2023-02-11T03:37:43.985Z,1.00
2023-02-11T03:40:13.868Z,2.78
2023-02-11T03:42:44.472Z,1.17
2023-02-11T03:45:14.558Z,0.10
2023-02-11T03:47:45.757Z,0.10
2023-02-11T03:50:14.864Z,0.20
2023-02-11T03:52:42.061Z,1.23
2023-02-11T03:55:16.224Z,0.30
2023-02-11T03:57:43.108Z,5.10
2023-02-11T04:00:10.665Z,0.57
2023-02-11T04:02:41.144Z,0.65
2023-02-11T04:05:10.113Z,0.38
2023-02-11T04:07:36.907Z,4.13
2023-02-11T04:10:04.185Z,0.15
2023-02-11T04:12:30.969Z,0.22
2023-02-11T04:14:59.023Z,0.00
2023-02-11T04:17:25.843Z,1.70
2023-02-11T04:19:52.520Z,0.30
2023-02-11T04:22:19.253Z,0.85
2023-02-11T04:24:45.974Z,0.10
2023-02-11T04:27:12.804Z,0.30
2023-02-11T04:29:39.479Z,0.35
2023-02-11T04:32:06.454Z,0.10
2023-02-11T04:34:33.297Z,0.20
2023-02-11T04:37:00.058Z,1.83
2023-02-11T04:39:26.994Z,0.22
2023-02-11T04:41:53.725Z,0.25
2023-02-11T04:44:20.444Z,2.05
2023-02-11T04:46:47.187Z,9.35
2023-02-11T04:49:15.262Z,0.80
2023-02-11T04:51:42.632Z,1.75
2023-02-11T04:54:09.404Z,0.75
2023-02-11T04:56:36.216Z,0.40
2023-02-11T04:59:03.331Z,1.40
2023-02-11T05:01:30.317Z,1.98
2023-02-11T05:03:57.123Z,10.02
2023-02-11T05:06:24.011Z,0.28
2023-02-11T05:08:51.178Z,0.93
2023-02-11T05:11:22.994Z,0.60
2023-02-11T05:13:49.897Z,0.55
2023-02-11T05:16:17.299Z,0.50
2023-02-11T05:18:45.221Z,0.00
2023-02-11T05:21:17.266Z,2.45
2023-02-11T05:23:44.895Z,1.75
2023-02-11T05:26:12.333Z,2.55
2023-02-11T05:28:39.387Z,4.07
2023-02-11T05:31:06.280Z,2.05
2023-02-11T05:33:33.446Z,1.23
2023-02-11T05:36:05.921Z,0.28
2023-02-11T05:38:33.326Z,0.70
2023-02-11T05:41:00.247Z,0.32
2023-02-11T05:43:27.205Z,0.75
2023-02-11T05:45:54.384Z,0.25
2023-02-11T05:48:21.324Z,4.47
2023-02-11T05:50:48.011Z,0.05
2023-02-11T05:53:15.000Z,0.10
2023-02-11T05:55:41.846Z,1.67
2023-02-11T05:58:08.957Z,1.15
2023-02-11T06:00:36.335Z,0.60
2023-02-11T06:03:04.556Z,2.38
2023-02-11T06:05:32.190Z,0.45
2023-02-11T06:07:59.150Z,0.85
2023-02-11T06:10:26.056Z,9.63
2023-02-11T06:12:52.838Z,1.17
2023-02-11T06:15:19.595Z,3.30
2023-02-11T06:17:46.368Z,1.02
2023-02-11T06:20:13.223Z,2.08
2023-02-11T06:22:39.957Z,4.82
2023-02-11T06:25:06.950Z,0.25
2023-02-11T06:27:33.804Z,0.20
2023-02-11T06:30:00.477Z,6.80
2023-02-11T06:32:45.678Z,0.30
2023-02-11T06:35:14.497Z,4.00
2023-02-11T06:37:42.144Z,5.47
2023-02-11T06:40:09.657Z,0.10
2023-02-11T06:42:38.812Z,2.30
2023-02-11T06:45:06.244Z,1.67
2023-02-11T06:47:33.116Z,5.47
2023-02-11T06:49:59.930Z,33.47
2023-02-11T06:52:26.610Z,37.53
2023-02-11T06:54:53.506Z,38.22
2023-02-11T06:57:20.324Z,38.65
2023-02-11T06:59:47.210Z,38.70
2023-02-11T07:02:14.035Z,38.58
2023-02-11T07:04:41.222Z,46.67
2023-02-11T07:07:09.074Z,36.40
2023-02-11T07:09:35.907Z,33.13
2023-02-11T07:12:02.840Z,40.60
2023-02-11T07:14:29.533Z,36.88
2023-02-11T07:16:56.185Z,33.80
2023-02-11T07:19:23.010Z,34.08
2023-02-11T07:21:49.701Z,36.95
2023-02-11T07:24:16.463Z,38.00
2023-02-11T07:26:43.223Z,37.72
2023-02-11T07:29:10.046Z,42.55
2023-02-11T07:31:36.827Z,28.00
2023-02-11T07:34:03.856Z,27.35
2023-02-11T07:36:32.118Z,32.53
2023-02-11T07:39:00.123Z,35.97
2023-02-11T07:41:27.639Z,31.77
2023-02-11T07:43:55.913Z,34.70
2023-02-11T07:46:25.303Z,30.88
2023-02-11T07:48:52.584Z,46.10
2023-02-11T07:51:23.348Z,54.40
2023-02-11T07:53:50.716Z,53.15
2023-02-11T07:56:18.333Z,46.90
2023-02-11T07:58:45.660Z,41.60
2023-02-11T08:01:14.833Z,39.03
2023-02-11T08:03:42.875Z,41.58
2023-02-11T08:06:15.405Z,38.63
2023-02-11T08:08:42.531Z,37.72
2023-02-11T08:11:11.262Z,34.95
2023-02-11T08:13:38.112Z,34.28
2023-02-11T08:16:05.508Z,44.08
2023-02-11T08:18:33.024Z,45.15
2023-02-11T08:21:07.812Z,36.17
2023-02-11T08:23:37.064Z,36.90
2023-02-11T08:26:05.596Z,35.83
2023-02-11T08:28:32.425Z,36.75
2023-02-11T08:31:05.673Z,44.75
2023-02-11T08:33:33.392Z,36.13
2023-02-11T08:36:00.251Z,40.00
2023-02-11T08:38:27.027Z,34.42
2023-02-11T08:40:53.848Z,47.25
2023-02-11T08:43:20.475Z,35.95
2023-02-11T08:45:47.373Z,38.20
2023-02-11T08:48:14.062Z,37.88
2023-02-11T08:50:40.815Z,37.15
2023-02-11T08:53:07.679Z,39.83
2023-02-11T08:55:34.505Z,39.50
2023-02-11T08:58:01.164Z,31.17
2023-02-11T09:00:27.996Z,32.38
2023-02-11T09:02:55.302Z,32.40
2023-02-11T09:05:22.809Z,37.10
2023-02-11T09:07:49.522Z,38.03
2023-02-11T09:10:16.452Z,33.97
2023-02-11T09:12:43.127Z,34.38
2023-02-11T09:15:10.077Z,30.50
2023-02-11T09:17:36.713Z,29.58
2023-02-11T09:20:04.027Z,30.00
2023-02-11T09:22:30.722Z,34.05
2023-02-11T09:24:57.441Z,32.13
2023-02-11T09:27:24.103Z,33.17
2023-02-11T09:29:50.865Z,31.90
2023-02-11T09:32:18.292Z,34.67
2023-02-11T09:34:45.150Z,28.48
2023-02-11T09:37:11.864Z,35.97
2023-02-11T09:39:38.640Z,34.72
2023-02-11T09:42:34.849Z,36.08
2023-02-11T09:45:03.399Z,38.35
2023-02-11T09:47:36.062Z,33.90
2023-02-11T09:50:06.214Z,33.83
2023-02-11T09:53:15.183Z,29.42
2023-02-11T09:55:44.183Z,32.53
2023-02-11T09:58:16.562Z,27.67
2023-02-11T10:00:46.265Z,30.05
2023-02-11T10:03:34.014Z,26.65
2023-02-11T10:06:25.317Z,28.75
2023-02-11T10:09:16.953Z,35.63
2023-02-11T10:12:17.550Z,27.27
2023-02-11T10:15:01.026Z,34.22
2023-02-11T10:17:50.614Z,47.88
2023-02-11T10:20:51.830Z,32.92
2023-02-11T10:23:25.825Z,31.35
2023-02-11T10:25:54.773Z,34.25
2023-02-11T10:28:33.102Z,29.40
2023-02-11T10:31:03.009Z,30.75
2023-02-11T10:33:51.509Z,33.60
2023-02-11T10:36:19.083Z,29.02
2023-02-11T10:38:45.723Z,28.30
2023-02-11T10:41:23.104Z,26.08
2023-02-11T10:43:50.572Z,23.73
2023-02-11T10:46:26.797Z,24.48
2023-02-11T10:48:54.183Z,22.92
2023-02-11T10:51:29.772Z,17.25
2023-02-11T10:54:06.155Z,15.60
2023-02-11T10:56:36.230Z,12.13
2023-02-11T10:59:16.031Z,15.63
2023-02-11T11:01:53.045Z,6.65
2023-02-11T11:04:40.746Z,13.18
2023-02-11T11:07:16.953Z,12.02
2023-02-11T11:10:02.619Z,14.55
2023-02-11T11:12:31.720Z,15.07
2023-02-11T11:15:28.568Z,14.43
2023-02-11T11:18:22.524Z,17.27
2023-02-11T11:20:59.169Z,14.88
2023-02-11T11:23:26.424Z,23.98
2023-02-11T11:26:11.163Z,14.13
2023-02-11T11:28:43.483Z,17.60
2023-02-11T11:31:23.722Z,14.77
2023-02-11T11:33:53.260Z,18.55
2023-02-11T11:36:32.056Z,14.98
2023-02-11T11:39:01.241Z,22.42
2023-02-11T11:41:33.861Z,16.35
2023-02-11T11:44:25.379Z,15.43
2023-02-11T11:47:10.633Z,17.20
2023-02-11T11:49:50.288Z,11.85
2023-02-11T11:52:32.391Z,11.85
2023-02-11T11:55:05.586Z,13.10
2023-02-11T11:57:35.699Z,17.65
2023-02-11T12:00:05.154Z,17.38
2023-02-11T12:02:56.509Z,15.57
2023-02-11T12:06:03.423Z,14.75
2023-02-11T12:08:52.421Z,11.02
2023-02-11T12:11:37.469Z,15.60
2023-02-11T12:14:07.863Z,15.38
2023-02-11T12:16:43.907Z,14.65
2023-02-11T12:19:35.849Z,12.70
2023-02-11T12:22:11.561Z,15.82
2023-02-11T12:24:57.217Z,13.65
2023-02-11T12:27:48.360Z,14.02
2023-02-11T12:30:20.162Z,8.10
2023-02-11T12:32:50.327Z,20.88
2023-02-11T12:35:36.432Z,12.85
2023-02-11T12:38:21.791Z,14.93
2023-02-11T12:41:04.673Z,10.27
2023-02-11T12:43:36.950Z,13.10
2023-02-11T12:46:39.065Z,9.57
2023-02-11T12:49:44.285Z,12.70
2023-02-11T12:52:38.087Z,14.35
2023-02-11T12:55:15.459Z,12.52
2023-02-11T12:57:43.773Z,11.57
2023-02-11T13:00:23.740Z,12.50
2023-02-11T13:03:19.251Z,16.17
2023-02-11T13:05:51.742Z,14.68
2023-02-11T13:08:28.148Z,11.40
2023-02-11T13:11:01.557Z,13.52
2023-02-11T13:13:54.228Z,9.95
2023-02-11T13:16:30.951Z,8.55
2023-02-11T13:19:06.653Z,12.13
2023-02-11T13:22:01.900Z,11.20
2023-02-11T13:24:53.639Z,9.18
2023-02-11T13:27:44.324Z,14.13
2023-02-11T13:30:46.994Z,8.98
2023-02-11T13:33:16.843Z,17.30
2023-02-11T13:36:06.521Z,16.80
2023-02-11T13:38:33.294Z,15.27
2023-02-11T13:41:21.228Z,15.32
2023-02-11T13:44:26.733Z,16.92
2023-02-11T13:47:05.000Z,23.40
2023-02-11T13:49:33.350Z,17.85
2023-02-11T13:52:02.104Z,18.60
2023-02-11T13:54:31.628Z,13.68
2023-02-11T13:57:19.987Z,13.18
2023-02-11T13:59:47.814Z,19.38
2023-02-11T14:02:35.937Z,17.00
2023-02-11T14:05:21.388Z,18.08
2023-02-11T14:08:28.749Z,18.70
2023-02-11T14:11:01.634Z,12.20
2023-02-11T14:13:30.279Z,15.23
2023-02-11T14:16:09.551Z,16.52
2023-02-11T14:18:45.750Z,13.85
2023-02-11T14:21:22.120Z,19.17
2023-02-11T14:23:50.636Z,16.70
2023-02-11T14:26:20.899Z,18.00
2023-02-11T14:28:55.795Z,12.20
2023-02-11T14:31:27.219Z,14.40
2023-02-11T14:34:06.027Z,18.35
2023-02-11T14:36:46.277Z,20.08
2023-02-11T14:39:37.842Z,18.55
2023-02-11T14:42:04.864Z,14.85
2023-02-11T14:44:32.642Z,15.75
2023-02-11T14:46:59.727Z,13.10
2023-02-11T14:49:30.087Z,13.77
2023-02-11T14:52:02.166Z,15.95
2023-02-11T14:54:29.142Z,13.18
2023-02-11T14:57:06.245Z,15.18
2023-02-11T14:59:33.274Z,18.10
2023-02-11T15:02:00.104Z,16.25
2023-02-11T15:04:29.364Z,17.65
2023-02-11T15:06:57.460Z,12.32
2023-02-11T15:09:48.657Z,13.50
2023-02-11T15:15:06.028Z,10.13
2023-02-11T15:17:32.911Z,16.67
2023-02-11T15:20:01.517Z,11.75
2023-02-11T15:22:30.324Z,11.60
2023-02-11T15:25:01.590Z,11.85
2023-02-11T15:27:28.528Z,14.48
2023-02-11T15:29:55.334Z,11.75
2023-02-11T15:32:24.647Z,11.00
2023-02-11T15:34:53.427Z,10.07
2023-02-11T15:37:22.982Z,12.02
2023-02-11T15:39:50.499Z,18.05
2023-02-11T15:42:26.349Z,10.38
2023-02-11T15:45:11.890Z,12.35
2023-02-11T15:47:39.940Z,11.63
2023-02-11T15:50:07.453Z,11.18
2023-02-11T15:52:34.299Z,11.25
2023-02-11T15:55:02.072Z,12.85
2023-02-11T15:57:29.272Z,20.38
2023-02-11T15:59:56.588Z,9.20
2023-02-11T16:02:32.450Z,9.63
2023-02-11T16:05:06.034Z,8.13
2023-02-11T16:07:50.171Z,9.80
2023-02-11T16:10:23.361Z,9.10
2023-02-11T16:13:03.339Z,9.23
2023-02-11T16:15:48.737Z,9.17
2023-02-11T16:18:24.614Z,13.02
2023-02-11T16:20:55.433Z,10.73
2023-02-11T16:23:25.412Z,8.70
2023-02-11T16:25:58.655Z,9.95
2023-02-11T16:28:25.822Z,10.00
2023-02-11T16:30:54.694Z,8.82
2023-02-11T16:33:21.958Z,11.30
2023-02-11T16:35:49.068Z,9.85
2023-02-11T16:38:17.252Z,8.43
2023-02-11T16:40:46.217Z,10.35
2023-02-11T16:43:12.963Z,10.95
2023-02-11T16:45:39.827Z,11.18
2023-02-11T16:48:08.424Z,9.30
2023-02-11T16:50:35.592Z,12.35
2023-02-11T16:53:06.219Z,14.85
2023-02-11T16:55:34.927Z,11.38
2023-02-11T16:58:01.870Z,10.02
2023-02-11T17:00:28.992Z,10.60
2023-02-11T17:02:56.093Z,12.70
2023-02-11T17:05:23.402Z,13.00
2023-02-11T17:07:50.133Z,12.68
2023-02-11T17:10:21.812Z,11.20
2023-02-11T17:12:49.749Z,13.95
2023-02-11T17:15:16.800Z,13.35
2023-02-11T17:17:43.727Z,10.27
2023-02-11T17:20:13.123Z,13.60
2023-02-11T17:22:40.245Z,26.52
2023-02-11T17:25:07.518Z,13.10
2023-02-11T17:27:34.635Z,0.80
2023-02-11T17:30:01.446Z,0.30
2023-02-11T17:32:28.271Z,1.08
2023-02-11T17:34:55.133Z,0.00
2023-02-11T17:37:22.420Z,0.10
2023-02-11T17:39:49.373Z,0.32
2023-02-11T17:42:16.390Z,0.00
2023-02-11T17:44:47.289Z,0.03
2023-02-11T17:47:14.562Z,0.75
2023-02-11T17:49:41.421Z,0.38
2023-02-11T17:52:08.534Z,1.08
2023-02-11T17:54:35.280Z,1.08
2023-02-11T17:57:02.021Z,1.30
2023-02-11T17:59:35.612Z,0.20
2023-02-11T18:02:03.815Z,0.77
2023-02-11T18:04:30.995Z,1.65
2023-02-11T18:06:57.921Z,0.57
2023-02-11T18:09:25.977Z,0.30
2023-02-11T18:11:52.917Z,0.22
2023-02-11T18:14:20.719Z,0.10
2023-02-11T18:16:51.210Z,0.90
2023-02-11T18:19:18.312Z,6.35
2023-02-11T18:21:45.153Z,0.52
2023-02-11T18:24:12.688Z,3.03
2023-02-11T18:26:39.961Z,1.40
2023-02-11T18:29:07.060Z,3.38
2023-02-11T18:31:35.358Z,0.68
2023-02-11T18:34:04.239Z,0.90
2023-02-11T18:36:31.103Z,1.13
2023-02-11T18:38:59.639Z,0.13
2023-02-11T18:41:27.088Z,0.70
2023-02-11T18:43:53.977Z,2.15
2023-02-11T18:46:20.733Z,2.85
2023-02-11T18:48:49.583Z,0.15
2023-02-11T18:51:19.056Z,0.00
2023-02-11T18:53:46.677Z,4.30
2023-02-11T18:56:19.533Z,0.10
2023-02-11T18:58:48.033Z,0.65
2023-02-11T19:01:17.300Z,0.70
2023-02-11T19:03:45.347Z,0.22
2023-02-11T19:06:18.226Z,4.93
2023-02-11T19:08:44.997Z,1.65
2023-02-11T19:11:12.549Z,0.20
2023-02-11T19:13:39.411Z,0.75
2023-02-11T19:16:11.081Z,1.00
2023-02-11T19:18:38.757Z,1.27
2023-02-11T19:21:12.481Z,1.48
2023-02-11T19:23:39.321Z,2.83
2023-02-11T19:26:06.495Z,0.15
2023-02-11T19:28:35.435Z,0.90
2023-02-11T19:31:07.005Z,0.73
2023-02-11T19:33:33.961Z,0.20
2023-02-11T19:36:09.491Z,0.30
2023-02-11T19:38:36.321Z,2.15
2023-02-11T19:41:03.011Z,1.77
2023-02-11T19:43:29.864Z,0.82
2023-02-11T19:45:57.638Z,0.20
2023-02-11T19:48:25.022Z,0.00
2023-02-11T19:50:52.366Z,0.20
2023-02-11T19:53:19.252Z,0.00
2023-02-11T19:55:46.120Z,0.45
2023-02-11T19:58:13.057Z,0.65
2023-02-11T20:00:40.079Z,0.35
2023-02-11T20:03:06.960Z,0.30
2023-02-11T20:05:34.257Z,0.93
2023-02-11T20:08:01.333Z,0.55
2023-02-11T20:10:28.134Z,2.22
2023-02-11T20:12:54.833Z,1.05
2023-02-11T20:15:21.673Z,0.10
2023-02-11T20:17:48.429Z,0.55
2023-02-11T20:20:15.297Z,0.10
2023-02-11T20:22:42.008Z,2.83
2023-02-11T20:25:10.859Z,0.88
2023-02-11T20:27:37.820Z,0.98
2023-02-11T20:30:05.480Z,0.08
2023-02-11T20:32:37.837Z,0.17
2023-02-11T20:35:06.484Z,0.63
2023-02-11T20:37:33.360Z,0.45
2023-02-11T20:40:00.218Z,2.10
2023-02-11T20:42:27.294Z,1.60
2023-02-11T20:44:54.014Z,2.80
2023-02-11T20:47:20.697Z,0.95
2023-02-11T20:49:47.433Z,0.10
2023-02-11T20:52:14.198Z,0.20
2023-02-11T20:54:41.289Z,0.00
2023-02-11T20:57:08.041Z,0.50
2023-02-11T20:59:34.754Z,0.80
2023-02-11T21:02:01.655Z,0.28
2023-02-11T21:04:30.401Z,0.73
2023-02-11T21:06:59.879Z,2.28
2023-02-11T21:09:29.244Z,0.10
2023-02-11T21:11:55.932Z,0.70
2023-02-11T21:14:24.013Z,0.82
2023-02-11T21:16:51.134Z,1.50
2023-02-11T21:19:18.404Z,1.75
2023-02-11T21:21:45.587Z,0.17
2023-02-11T21:24:12.572Z,0.20
2023-02-11T21:26:39.541Z,0.00
2023-02-11T21:29:07.547Z,0.55
2023-02-11T21:31:36.292Z,0.55
2023-02-11T21:34:03.938Z,1.55
2023-02-11T21:36:30.810Z,0.75
2023-02-11T21:38:57.992Z,0.10
2023-02-11T21:41:25.006Z,0.82
2023-02-11T21:43:52.134Z,0.55
2023-02-11T21:46:19.427Z,0.98
2023-02-11T21:48:46.457Z,1.00
2023-02-11T21:51:24.814Z,0.45
2023-02-11T21:53:56.254Z,0.22
2023-02-11T21:56:23.730Z,0.00
2023-02-11T21:58:52.739Z,1.13
2023-02-11T22:01:25.541Z,0.40
2023-02-11T22:03:52.470Z,0.22
2023-02-11T22:06:22.449Z,1.38
2023-02-11T22:08:50.358Z,0.10
2023-02-11T22:11:17.060Z,0.10
2023-02-11T22:13:43.887Z,1.33
2023-02-11T22:16:14.103Z,0.30
2023-02-11T22:18:41.546Z,0.00
2023-02-11T22:21:14.940Z,0.77
2023-02-11T22:23:41.886Z,0.10
2023-02-11T22:26:11.273Z,4.13
2023-02-11T22:28:40.595Z,0.10
2023-02-11T22:31:11.851Z,4.40
2023-02-11T22:33:38.758Z,0.00
2023-02-11T22:36:08.023Z,0.17
2023-02-11T22:38:35.226Z,0.03
2023-02-11T22:41:06.334Z,1.65
2023-02-11T22:43:33.021Z,4.70
2023-02-11T22:46:03.723Z,0.60
2023-02-11T22:50:59.261Z,0.55
2023-02-11T22:53:26.680Z,0.32
2023-02-11T22:55:54.583Z,0.60
2023-02-11T22:58:22.112Z,0.43
2023-02-11T23:00:49.503Z,0.70
2023-02-11T23:03:17.044Z,1.42
2023-02-11T23:05:44.765Z,0.43
2023-02-11T23:08:12.608Z,5.22
2023-02-11T23:10:40.886Z,0.32
2023-02-11T23:13:10.628Z,0.30
2023-02-11T23:15:42.645Z,1.98
2023-02-11T23:18:10.333Z,1.23
2023-02-11T23:20:39.687Z,3.22
2023-02-11T23:23:07.497Z,0.00
2023-02-11T23:25:35.895Z,1.38
2023-02-11T23:28:03.449Z,0.73
2023-02-11T23:30:30.610Z,0.10
2023-02-11T23:32:58.147Z,1.80
2023-02-11T23:35:25.254Z,1.35
2023-02-11T23:37:53.024Z,2.97
2023-02-11T23:40:22.137Z,0.15
2023-02-11T23:42:49.348Z,0.10
2023-02-11T23:45:16.200Z,0.32
2023-02-11T23:47:42.875Z,0.30
2023-02-11T23:50:10.181Z,2.38
2023-02-11T23:52:37.384Z,0.52
2023-02-11T23:55:04.730Z,0.25
2023-02-11T23:57:35.075Z,0.10
